Dipolog, Philippines
Current Conditions -  °F | °C
As of 10:00 AM on Saturday 22 Nov 2014 (Local Time) from RPVM Reporting Station
Few Clouds Few Clouds  
Wind Chill: 88°   Ceiling: Unl
Heat Index: 100°   Visibility: 6mi
Dew Point: 77°   Wind: 7mph
Humidity: 70%   Direction: 40°NE
Pressure: 29.88"   Gusts: NA
Location:  8.59°N, 123.35°E
Report Text: RPVM 220200Z 04006KT 9999 FEW018CB 31/25 Q1012 RMK A2988 CB SE AND SW
Loading
Personal Weather Stations






























Interactive Weather Map New forecast layout! Learn more

10-Day Weather Forecast

Advertisements
Track Severe Weather on mobile